Terminal Aerodrome Forecast
Issued by NWS

Home | Current Version | Previous Version | Text Only | Print | Product List | Glossary On
Versions: 1 2 3 4 5 6 7 8 9 10 11 12 13 14
000
FTUS42 KMLB 251100
TAFSUA
TAF
KSUA 251120Z 2512/2612 31004KT P6SM FEW200
     FM251600 33007KT P6SM SCT250
     FM251800 36008KT P6SM SCT250
     FM252000 03008KT P6SM FEW150 SCT250
     FM252300 25003KT P6SM SCT100 BKN250
     FM260900 21007KT P6SM SCT020 BKN050=

USA.gov is the U.S. government's official web portal to all federal, state and local government web resources and services.